ADDS METAR Data INFO
IDs: Format: Raw Decoded Include TAF

Data at: 1133 UTC 29 May 2017

KTRL 291053Z AUTO 02008KT 10SM CLR 20/17 A2996 RMK AO2 SLP139 T02000172
KTRL 290953Z AUTO 01006KT 10SM CLR 21/19 A2996 RMK AO2 SLP141 T02110189
KTRL 290853Z AUTO 33005KT 10SM CLR 22/20 A2997 RMK AO2 SLP142 T02170200 58021
KTRL 290753Z AUTO 00000KT 6SM BR FEW025 BKN034 BKN045 21/20 A2999 RMK AO2 SLP149 T02110200
KTRL 290746Z AUTO 00000KT 6SM BR FEW021 SCT029 BKN039 21/20 A2999 RMK AO2 T02110200
KTRL 290710Z AUTO 00000KT 8SM BKN023 BKN030 OVC039 22/21 A3003 RMK AO2 T02170206
KTRL 290653Z AUTO 00000KT 7SM FEW024 SCT035 BKN042 21/20 A3003 RMK AO2 SLP165 T02110200
KTRL 290553Z AUTO 00000KT 7SM FEW028 BKN041 BKN050 21/20 A3003 RMK AO2 SLP163 60000 T02110200 10233 20211 402780200 50014
KTRL 290453Z AUTO 22005KT 7SM FEW037 21/20 A3004 RMK AO2 LTG DSNT S SLP166 T02110200
KTRL 290353Z AUTO 26003KT 7SM CLR 22/21 A3001 RMK AO2 RAB29E42 SLP156 P0000 T02170206
KTRL 290253Z AUTO 22003KT 8SM CLR 22/21 A2999 RMK AO2 SLP149 T02170206 53022
KTRL 290153Z AUTO 07004KT 10SM CLR 22/21 A2994 RMK AO2 PRESRR SLP132 T02220206
KTRL 290053Z AUTO 01006KT 10SM FEW060 BKN075 23/21 A2991 RMK AO2 SLP124 T02280206
KTRL 282353Z AUTO 07004KT 10SM OVC039 23/20 A2992 RMK AO2 SLP127 60069 T02280200 10250 20211 55019
KTRL 282322Z AUTO 01008KT 10SM FEW020 OVC030 23/21 A2989 RMK AO2 T02280206
KTRL 282253Z AUTO 36008KT 10SM OVC018 23/21 A2991 RMK AO2 RAE2156B15E29 SLP121 P0000 T02280206
KTRL 282207Z AUTO 03008KT 10SM BKN023 BKN035 OVC070 23/21 A2995 RMK AO2 LTG DSNT E AND SE RAE2156 P0000 T02330206
KTRL 282153Z AUTO 36008KT 10SM VCTS -RA FEW033 SCT050 BKN070 23/21 A2995 RMK AO2 LTG DSNT E AND SE RAE24B42 TSE52 SLP136 P0052 T02330206
KTRL 282120Z AUTO 33008KT 9SM -TSRA SCT017 BKN043 22/20 A2996 RMK AO2 LTG DSNT ALQDS P0051 T02170200
KTRL 282114Z AUTO 32008KT 2SM TSRA BR FEW010 BKN024 OVC100 22/20 A2996 RMK AO2 LTG DSNT ALQDS P0051 T02170200
KTRL 282105Z AUTO 35008G22KT 1/2SM +TSRA FG SCT013 BKN026 OVC045 21/20 A2993 RMK AO2 LTG DSNT ALQDS P0043 T02110200
KTRL 282056Z AUTO 28015KT 1 3/4SM +TSRA BR FEW009 BKN027 OVC110 22/21 A2999 RMK AO2 VIS 1/2V3 LTG DSNT ALQDS PRESRR P0004 T02220206
KTRL 282053Z AUTO 27014KT 3SM +TSRA BR FEW009 BKN027 OVC110 22/20 A2998 RMK AO2 LTG DSNT ALQDS RAB08 TSB10 PRESRR SLP146 P0017 60017 T02220200 53005
KTRL 282041Z AUTO 04007KT 10SM -TSRA SCT022 BKN045 OVC110 23/20 A2994 RMK AO2 LTG DSNT ALQDS RAB08 TSB10 P0009 T02280200
KTRL 282016Z AUTO 36009KT 4SM +TSRA SCT019 OVC026 23/20 A2997 RMK AO2 LTG DSNT ALQDS RAB08 TSB10 P0007 T02330200
KTRL 281953Z AUTO 36007KT 10SM VCTS OVC026 24/20 A2998 RMK AO2 LTG DSNT SW-N SLP144 T02440200
KTRL 281905Z AUTO VRB05KT 10SM BKN028 BKN037 24/20 A2996 RMK AO2 LTG DSNT NW T02440200
KTRL 281853Z AUTO 03006KT 10SM SCT028 BKN037 BKN047 25/20 A2996 RMK AO2 SLP137 T02500200
KTRL 281753Z AUTO 04008KT 10SM OVC025 23/19 A2997 RMK AO2 SLP140 60000 T02280194 10228 20200 58001
KTRL 281720Z AUTO 08007KT 10SM OVC028 23/19 A2998 RMK AO2 T02280194
KTRL 281710Z AUTO 08007KT 10SM OVC030 23/19 A2997 RMK AO2 T02280194
KTRL 281653Z AUTO 10005KT 10SM OVC029 22/19 A2997 RMK AO2 SLP142 T02220194
KTRL 281553Z AUTO 08006KT 10SM FEW008 OVC027 21/19 A2997 RMK AO2 RAB13E48 SLP141 P0000 T02110194
KTRL 281536Z AUTO 07007KT 4SM -RA BR FEW009 OVC025 21/19 A2997 RMK AO2 RAB13 P0000 T02110194
KTRL 281453Z AUTO 07009KT 10SM SCT010 BKN016 OVC029 21/19 A2997 RMK AO2 RAB1358E49 SLP141 P0000 60000 T02110194 51016
KTRL 281444Z AUTO 05007KT 10SM -RA BKN010 BKN014 OVC029 21/19 A2996 RMK AO2 LTG DSNT E RAB1358 CIG 007V011 P0000 T02110194
KTRL 281353Z AUTO 06006KT 10SM SCT009 OVC027 21/19 A2995 RMK AO2 RAB25E52 SLP133 P0000 T02060194
KTRL 281350Z AUTO 05007KT 10SM -RA BKN009 OVC027 21/19 A2994 RMK AO2 RAB25 CIG 007V014 P0000
KTRL 281321Z AUTO 02006KT 10SM SCT009 OVC028 21/19 A2994 RMK AO2 T02110194
KTRL 281253Z AUTO 03006KT 10SM OVC028 21/19 A2992 RMK AO2 SLP125 T02060189
KTRL 281205Z AUTO 12007KT 10SM SCT006 OVC025 20/19 A2990 RMK AO2 LTG DSNT E AND SE T02000189
KTRL 281153Z AUTO 12010KT 10SM VCTS SCT006 OVC027 20/19 A2989 RMK AO2 WSHFT 1101 LTG DSNT NE-SE RAE33 TSE44 SLP115 P0020 60038 70038 T02000189 10278 20200 51008
KTRL 281150Z AUTO 12009KT 10SM VCTS SCT006 OVC027 20/19 A2989 RMK AO2 WSHFT 1101 LTG DSNT NE-SE RAE33 TSE44 P0020
KTRL 281136Z AUTO 11009KT 10SM TS FEW006 BKN029 OVC050 20/18 A2989 RMK AO2 WSHFT 1101 LTG DSNT NE-SE RAE33 P0020 T02000183
KTRL 281115Z AUTO 11011KT 5SM -TSRA BR FEW023 BKN034 OVC050 20/18 A2989 RMK AO2 WSHFT 1101 LTG DSNT NE-SE P0020 T02000183
KTRL 281107Z AUTO 13011KT 3SM TSRA BR FEW023 BKN027 OVC050 20/19 A2988 RMK AO2 LTG DSNT N-SE P0019 T02000189
KTRL 281053Z AUTO 06005KT 1 3/4SM +TSRA BR FEW021 OVC026 21/18 A2989 RMK AO2 LTG DSNT N-E RAB29 TSB29 SLP116 P0018 T02060183
KTRL 281035Z AUTO 07008KT 10SM -TSRA OVC026 23/17 A2988 RMK AO2 LTG DSNT ALQDS RAB29 TSB29 P0000 T02330172
KTRL 280953Z AUTO 03014G18KT 10SM VCTS BKN029 OVC035 25/19 A2987 RMK AO2 LTG DSNT NW-NE SLP106 T02500189
KTRL 280933Z AUTO 09006KT 10SM BKN030 OVC036 26/21 A2986 RMK AO2 LTG DSNT N T02610206
KTRL 280901Z AUTO VRB04KT 10SM SCT020 BKN028 26/21 A2982 RMK AO2 LTG DSNT SE T02610206
KTRL 280853Z AUTO 02016G22KT 10SM SCT021 26/21 A2984 RMK AO2 LTG DSNT SE PRESRR SLP097 T02560206 53022
KTRL 280753Z AUTO 18011KT 10SM CLR 26/20 A2975 RMK AO2 SLP068 T02610200
KTRL 280719Z AUTO 19011KT 10SM CLR 27/20 A2977 RMK AO2 LTG DSNT NE T02670200
KTRL 280703Z AUTO 19012G16KT 10SM VCTS CLR 27/20 A2978 RMK AO2 LTG DSNT NE T02670200
KTRL 280653Z AUTO 20010G18KT 10SM CLR 27/20 A2979 RMK AO2 LTG DSNT NE SLP081 T02670200
KTRL 280553Z AUTO 18011KT 10SM CLR 27/21 A2978 RMK AO2 SLP075 T02720211 10306 20272 403060250 50001
KTRL 280453Z AUTO 18014KT 10SM CLR 28/22 A2979 RMK AO2 SLP079 T02780222
KTRL 280353Z AUTO 18012KT 10SM CLR 28/23 A2978 RMK AO2 SLP075 T02830228
KTRL 280253Z AUTO 17011KT 10SM OVC047 29/23 A2977 RMK AO2 SLP074 T02890233 55004
KTRL 280153Z AUTO 18007KT 8SM BKN047 29/23 A2977 RMK AO2 SLP072 T02890233
KTRL 280053Z AUTO 17006KT 6SM HZ BKN050 29/24 A2977 RMK AO2 SLP073 T02940239
KTRL 272353Z AUTO 18011KT 5SM HZ SCT050 31/24 A2978 RMK AO2 SLP078 T03060239 10306 20278 56015


Page loaded:  11:33 UTC  |   04:33 AM Pacific  |   05:33 AM Mountain  |   06:33 AM Central  |   07:33 AM Eastern

 

ADVISORIES

FORECASTS

FORECASTS

OBSERVATIONS

USER TOOLS

ABOUT US